Pearsonville, California
Current Conditions -  °F | °C
As of 10:56 PM on Thursday 30 Oct 2014 (Local Time) from KNID Reporting Station
Few Clouds Few Clouds  
Wind Chill: 63°   Ceiling: Unl
Heat Index: 63°   Visibility: 10mi
Dew Point: 21°   Wind: 9mph
Humidity: 20%   Direction: 160°SSE
Pressure: 29.95"   Gusts: NA
Location:  35.6841°N, 117.934°W
Report Text: KNID 310556Z 16008KT 10SM FEW250 17/M06 A2995 RMK AO2 SLP130 T01721061 10283 20167 53004 $
Loading
Personal Weather Stations






























Interactive Weather Map
Tropical Storm Tracking
New forecast layout! Learn more

10-Day Weather Forecast

Advertisements
Track Severe Weather on mobile